Time,TemperatureF,DewpointF,PressureIn,WindDirection,WindDirectionDegrees,WindSpeedMPH,WindSpeedGustMPH,Humidity,HourlyPrecipIn,Conditions,Clouds,dailyrainin,SoftwareType,DateUTC
2013-03-22 00:02:00,24.0,12.0,-100.00,West,270,2.0,5.0,60,-99.99,,,-99.99,,2013-03-22 07:02:00,
2013-03-22 00:12:00,25.0,11.0,-100.00,NE,40,2.0,4.0,56,-99.99,,,-99.99,,2013-03-22 07:12:00,
2013-03-22 00:22:00,25.0,12.0,-100.00,NNE,21,1.0,3.0,57,-99.99,,,-99.99,,2013-03-22 07:22:00,
2013-03-22 00:32:00,25.0,12.0,-100.00,ENE,73,3.0,6.0,56,-99.99,,,-99.99,,2013-03-22 07:32:00,
2013-03-22 00:42:00,25.0,12.0,-100.00,ENE,73,3.0,6.0,56,-99.99,,,-99.99,,2013-03-22 07:42:00,
2013-03-22 00:52:00,26.0,12.0,-100.00,NE,40,2.0,4.0,54,-99.99,,,-99.99,,2013-03-22 07:52:00,
2013-03-22 01:02:00,26.0,12.0,-100.00,North,8,2.0,7.0,55,-99.99,,,-99.99,,2013-03-22 08:02:00,
2013-03-22 01:12:00,25.0,13.0,-100.00,ENE,66,2.0,4.0,58,-99.99,,,-99.99,,2013-03-22 08:12:00,
2013-03-22 01:22:00,25.0,12.0,-100.00,ENE,61,2.0,3.0,58,-99.99,,,-99.99,,2013-03-22 08:22:00,
2013-03-22 01:32:00,22.0,13.0,-100.00,NE,41,1.0,2.0,67,-99.99,,,-99.99,,2013-03-22 08:32:00,
2013-03-22 01:42:00,21.0,13.0,-100.00,ENE,62,0.0,2.0,70,-99.99,,,-99.99,,2013-03-22 08:42:00,
2013-03-22 01:52:00,21.0,13.0,-100.00,East,82,1.0,2.0,69,-99.99,,,-99.99,,2013-03-22 08:52:00,
2013-03-22 02:02:00,20.0,13.0,-100.00,ENE,72,1.0,3.0,72,-99.99,,,-99.99,,2013-03-22 09:02:00,
2013-03-22 02:12:00,19.0,12.0,-100.00,ESE,114,1.0,4.0,74,-99.99,,,-99.99,,2013-03-22 09:12:00,
2013-03-22 02:22:00,17.0,11.0,-100.00,NNW,337,1.0,3.0,76,-99.99,,,-99.99,,2013-03-22 09:22:00,
2013-03-22 02:32:00,17.0,11.0,-100.00,NW,322,0.0,2.0,77,-99.99,,,-99.99,,2013-03-22 09:32:00,
2013-03-22 02:42:00,18.0,12.0,-100.00,North,6,0.0,2.0,78,-99.99,,,-99.99,,2013-03-22 09:42:00,
2013-03-22 02:53:00,17.0,12.0,-100.00,North,357,1.0,3.0,79,-99.99,,,-99.99,,2013-03-22 09:53:00,
2013-03-22 03:03:00,16.0,11.0,-100.00,North,360,1.0,4.0,82,-99.99,,,-99.99,,2013-03-22 10:03:00,
2013-03-22 03:12:00,16.0,11.0,-100.00,NNW,344,1.0,4.0,81,-99.99,,,-99.99,,2013-03-22 10:12:00,
2013-03-22 03:22:00,16.0,11.0,-100.00,North,7,1.0,5.0,81,-99.99,,,-99.99,,2013-03-22 10:22:00,
2013-03-22 03:32:00,16.0,11.0,-100.00,East,82,1.0,2.0,81,-99.99,,,-99.99,,2013-03-22 10:32:00,
2013-03-22 03:42:00,15.0,11.0,-100.00,ESE,109,0.0,2.0,81,-99.99,,,-99.99,,2013-03-22 10:42:00,
2013-03-22 03:52:00,14.0,10.0,-100.00,North,353,0.0,2.0,82,-99.99,,,-99.99,,2013-03-22 10:52:00,
2013-03-22 04:02:00,14.0,10.0,-100.00,NNW,332,1.0,4.0,82,-99.99,,,-99.99,,2013-03-22 11:02:00,
2013-03-22 04:12:00,14.0,10.0,-100.00,North,4,0.0,1.0,83,-99.99,,,-99.99,,2013-03-22 11:12:00,
2013-03-22 04:22:00,14.0,10.0,-100.00,NNE,28,0.0,2.0,84,-99.99,,,-99.99,,2013-03-22 11:22:00,
2013-03-22 04:32:00,14.0,10.0,-100.00,NNE,25,1.0,3.0,84,-99.99,,,-99.99,,2013-03-22 11:32:00,
2013-03-22 04:42:00,14.0,10.0,-100.00,North,360,1.0,3.0,83,-99.99,,,-99.99,,2013-03-22 11:42:00,
2013-03-22 04:52:00,14.0,10.0,-100.00,North,360,1.0,3.0,83,-99.99,,,-99.99,,2013-03-22 11:52:00,
2013-03-22 05:02:00,13.0,9.0,-100.00,North,1,0.0,1.0,84,-99.99,,,-99.99,,2013-03-22 12:02:00,
2013-03-22 05:12:00,13.0,9.0,-100.00,NNW,347,0.0,2.0,84,-99.99,,,-99.99,,2013-03-22 12:12:00,
2013-03-22 05:22:00,13.0,9.0,-100.00,North,10,0.0,0.0,84,-99.99,,,-99.99,,2013-03-22 12:22:00,
2013-03-22 05:32:00,13.0,9.0,-100.00,North,10,0.0,0.0,84,-99.99,,,-99.99,,2013-03-22 12:32:00,
2013-03-22 05:42:00,13.0,9.0,-100.00,NNE,20,0.0,2.0,84,-99.99,,,-99.99,,2013-03-22 12:42:00,
2013-03-22 05:52:00,13.0,9.0,-100.00,NE,54,1.0,2.0,83,-99.99,,,-99.99,,2013-03-22 12:52:00,
2013-03-22 06:02:00,13.0,8.0,-100.00,NNE,23,0.0,2.0,82,-99.99,,,-99.99,,2013-03-22 13:02:00,
2013-03-22 06:12:00,13.0,8.0,-100.00,NNE,32,0.0,1.0,82,-99.99,,,-99.99,,2013-03-22 13:12:00,
2013-03-22 06:22:00,12.0,8.0,-100.00,North,-999,0.0,0.0,83,-99.99,,,-99.99,,2013-03-22 13:22:00,
2013-03-22 06:32:00,12.0,8.0,-100.00,North,-999,0.0,0.0,84,-99.99,,,-99.99,,2013-03-22 13:32:00,
2013-03-22 06:42:00,12.0,8.0,-100.00,North,-999,0.0,0.0,84,-99.99,,,-99.99,,2013-03-22 13:42:00,
2013-03-22 06:52:00,12.0,8.0,-100.00,NNE,24,0.0,0.0,83,-99.99,,,-99.99,,2013-03-22 13:52:00,
2013-03-22 07:02:00,12.0,8.0,-100.00,NNE,24,0.0,0.0,83,-99.99,,,-99.99,,2013-03-22 14:02:00,
2013-03-22 07:12:00,12.0,9.0,-100.00,NE,37,0.0,0.0,84,-99.99,,,-99.99,,2013-03-22 14:12:00,
2013-03-22 07:22:00,13.0,8.0,-100.00,NE,49,0.0,2.0,82,-99.99,,,-99.99,,2013-03-22 14:22:00,
2013-03-22 07:32:00,13.0,8.0,-100.00,NE,35,0.0,3.0,81,-99.99,,,-99.99,,2013-03-22 14:32:00,
2013-03-22 07:42:00,14.0,9.0,-100.00,NE,41,1.0,2.0,80,-99.99,,,-99.99,,2013-03-22 14:42:00,
2013-03-22 07:52:00,15.0,10.0,-100.00,NE,42,0.0,2.0,80,-99.99,,,-99.99,,2013-03-22 14:52:00,
2013-03-22 08:02:00,16.0,10.0,-100.00,East,93,0.0,2.0,79,-99.99,,,-99.99,,2013-03-22 15:02:00,
2013-03-22 08:12:00,18.0,11.0,-100.00,NE,51,0.0,2.0,74,-99.99,,,-99.99,,2013-03-22 15:12:00,
2013-03-22 08:22:00,20.0,13.0,-100.00,North,352,0.0,0.0,75,-99.99,,,-99.99,,2013-03-22 15:22:00,
2013-03-22 08:32:00,23.0,16.0,-100.00,WSW,241,0.0,3.0,74,-99.99,,,-99.99,,2013-03-22 15:32:00,
2013-03-22 08:42:00,26.0,8.0,-100.00,SW,234,3.0,6.0,45,-99.99,,,-99.99,,2013-03-22 15:42:00,
2013-03-22 08:52:00,27.0,8.0,-100.00,SW,227,5.0,8.0,44,-99.99,,,-99.99,,2013-03-22 15:52:00,
2013-03-22 09:02:00,27.0,7.0,-100.00,WSW,241,5.0,8.0,41,-99.99,,,-99.99,,2013-03-22 16:02:00,
2013-03-22 09:13:00,27.0,8.0,-100.00,WSW,251,7.0,11.0,43,-99.99,,,-99.99,,2013-03-22 16:13:00,
2013-03-22 09:22:00,27.0,5.0,-100.00,WSW,256,6.0,13.0,39,-99.99,,,-99.99,,2013-03-22 16:22:00,
2013-03-22 09:32:00,28.0,5.0,-100.00,West,272,5.0,9.0,37,-99.99,,,-99.99,,2013-03-22 16:32:00,
2013-03-22 09:42:00,27.0,4.0,-100.00,West,261,6.0,11.0,36,-99.99,,,-99.99,,2013-03-22 16:42:00,
2013-03-22 09:52:00,28.0,3.0,-100.00,WSW,250,3.0,10.0,34,-99.99,,,-99.99,,2013-03-22 16:52:00,
2013-03-22 10:03:00,28.0,1.0,-100.00,SSW,213,5.0,11.0,31,-99.99,,,-99.99,,2013-03-22 17:03:00,
2013-03-22 10:12:00,29.0,4.0,-100.00,WSW,257,4.0,9.0,35,-99.99,,,-99.99,,2013-03-22 17:12:00,
2013-03-22 10:23:00,29.0,4.0,-100.00,NW,312,4.0,8.0,33,-99.99,,,-99.99,,2013-03-22 17:23:00,
2013-03-22 10:32:00,29.0,1.0,-100.00,SW,226,6.0,16.0,30,-99.99,,,-99.99,,2013-03-22 17:32:00,
2013-03-22 10:42:00,30.0,4.0,-100.00,West,277,4.0,11.0,33,-99.99,,,-99.99,,2013-03-22 17:42:00,
2013-03-22 10:52:00,30.0,3.0,-100.00,NW,313,7.0,14.0,31,-99.99,,,-99.99,,2013-03-22 17:52:00,
2013-03-22 11:02:00,30.0,3.0,-100.00,NW,313,7.0,14.0,31,-99.99,,,-99.99,,2013-03-22 18:02:00,
2013-03-22 11:12:00,30.0,2.0,-100.00,NW,304,7.0,19.0,29,-99.99,,,-99.99,,2013-03-22 18:12:00,
2013-03-22 11:22:00,30.0,1.0,-100.00,NW,309,9.0,17.0,29,-99.99,,,-99.99,,2013-03-22 18:22:00,
2013-03-22 11:32:00,30.0,3.0,-100.00,NW,308,6.0,14.0,30,-99.99,,,-99.99,,2013-03-22 18:32:00,
2013-03-22 11:42:00,31.0,4.0,-100.00,WNW,291,11.0,24.0,31,-99.99,,,-99.99,,2013-03-22 18:42:00,
2013-03-22 11:52:00,30.0,6.0,-100.00,NW,305,11.0,19.0,35,-99.99,,,-99.99,,2013-03-22 18:52:00,
2013-03-22 12:02:00,30.0,1.0,-100.00,WNW,291,11.0,19.0,28,-99.99,,,-99.99,,2013-03-22 19:02:00,
2013-03-22 12:12:00,31.0,5.0,-100.00,WNW,292,10.0,20.0,33,-99.99,,,-99.99,,2013-03-22 19:12:00,
2013-03-22 12:22:00,32.0,9.0,-100.00,WNW,285,9.0,15.0,37,-99.99,,,-99.99,,2013-03-22 19:22:00,
2013-03-22 12:32:00,31.0,7.0,-100.00,WNW,288,10.0,21.0,36,-99.99,,,-99.99,,2013-03-22 19:32:00,
2013-03-22 12:42:00,31.0,7.0,-100.00,West,274,8.0,20.0,35,-99.99,,,-99.99,,2013-03-22 19:42:00,
2013-03-22 12:52:00,31.0,7.0,-100.00,West,270,11.0,21.0,35,-99.99,,,-99.99,,2013-03-22 19:52:00,
2013-03-22 13:02:00,31.0,7.0,-100.00,West,261,12.0,22.0,36,-99.99,,,-99.99,,2013-03-22 20:02:00,
2013-03-22 13:12:00,32.0,7.0,-100.00,WNW,282,10.0,23.0,35,-99.99,,,-99.99,,2013-03-22 20:12:00,
2013-03-22 13:22:00,31.0,5.0,-100.00,West,265,10.0,20.0,33,-99.99,,,-99.99,,2013-03-22 20:22:00,
2013-03-22 13:32:00,31.0,6.0,-100.00,WSW,253,10.0,25.0,34,-99.99,,,-99.99,,2013-03-22 20:32:00,
2013-03-22 13:42:00,32.0,3.0,-100.00,West,274,11.0,22.0,29,-99.99,,,-99.99,,2013-03-22 20:42:00,
2013-03-22 13:52:00,32.0,9.0,-100.00,WNW,291,13.0,24.0,37,-99.99,,,-99.99,,2013-03-22 20:52:00,
2013-03-22 14:02:00,32.0,8.0,-100.00,WNW,282,11.0,22.0,35,-99.99,,,-99.99,,2013-03-22 21:02:00,
2013-03-22 14:12:00,31.0,5.0,-100.00,WNW,289,13.0,25.0,32,-99.99,,,-99.99,,2013-03-22 21:12:00,
2013-03-22 14:22:00,32.0,5.0,-100.00,West,275,11.0,24.0,32,-99.99,,,-99.99,,2013-03-22 21:22:00,
2013-03-22 14:32:00,32.0,6.0,-100.00,West,270,13.0,26.0,33,-99.99,,,-99.99,,2013-03-22 21:32:00,
2013-03-22 14:42:00,31.0,6.0,-100.00,West,270,10.0,20.0,34,-99.99,,,-99.99,,2013-03-22 21:42:00,
2013-03-22 14:52:00,32.0,7.0,-100.00,WNW,287,13.0,27.0,35,-99.99,,,-99.99,,2013-03-22 21:52:00,
2013-03-22 15:02:00,31.0,6.0,-100.00,West,277,12.0,22.0,34,-99.99,,,-99.99,,2013-03-22 22:02:00,
2013-03-22 15:12:00,33.0,8.0,-100.00,West,281,12.0,21.0,35,-99.99,,,-99.99,,2013-03-22 22:12:00,
2013-03-22 15:22:00,33.0,9.0,-100.00,West,274,14.0,23.0,36,-99.99,,,-99.99,,2013-03-22 22:22:00,
2013-03-22 15:32:00,32.0,5.0,-100.00,West,275,15.0,27.0,31,-99.99,,,-99.99,,2013-03-22 22:32:00,
2013-03-22 15:42:00,32.0,8.0,-100.00,West,271,15.0,27.0,35,-99.99,,,-99.99,,2013-03-22 22:42:00,
2013-03-22 15:52:00,32.0,7.0,-100.00,West,260,13.0,26.0,35,-99.99,,,-99.99,,2013-03-22 22:52:00,
2013-03-22 16:02:00,32.0,6.0,-100.00,West,261,13.0,23.0,34,-99.99,,,-99.99,,2013-03-22 23:02:00,
2013-03-22 16:12:00,32.0,8.0,-100.00,West,261,12.0,20.0,35,-99.99,,,-99.99,,2013-03-22 23:12:00,
2013-03-22 16:22:00,32.0,9.0,-100.00,WNW,285,13.0,22.0,37,-99.99,,,-99.99,,2013-03-22 23:22:00,
2013-03-22 16:32:00,32.0,7.0,-100.00,West,263,12.0,23.0,35,-99.99,,,-99.99,,2013-03-22 23:32:00,
2013-03-22 16:41:00,31.0,7.0,-100.00,WNW,292,14.0,25.0,36,-99.99,,,-99.99,,2013-03-22 23:41:00,
2013-03-22 16:42:00,31.0,7.0,-100.00,West,265,13.0,22.0,35,-99.99,,,-99.99,,2013-03-22 23:42:00,
2013-03-22 16:52:00,32.0,6.0,-100.00,West,265,12.0,22.0,33,-99.99,,,-99.99,,2013-03-22 23:52:00,
2013-03-22 17:02:00,31.0,8.0,-100.00,West,265,12.0,19.0,37,-99.99,,,-99.99,,2013-03-23 00:02:00,
2013-03-22 17:12:00,31.0,7.0,-100.00,WSW,251,13.0,23.0,35,-99.99,,,-99.99,,2013-03-23 00:12:00,
2013-03-22 17:22:00,31.0,7.0,-100.00,WNW,292,14.0,25.0,36,-99.99,,,-99.99,,2013-03-23 00:22:00,
2013-03-22 17:32:00,31.0,7.0,-100.00,WNW,292,14.0,25.0,36,-99.99,,,-99.99,,2013-03-23 00:32:00,
2013-03-22 17:52:00,30.0,8.0,-100.00,WNW,292,14.0,24.0,40,-99.99,,,-99.99,,2013-03-23 00:52:00,
2013-03-22 18:03:00,29.0,8.0,-100.00,WNW,292,13.0,26.0,40,-99.99,,,-99.99,,2013-03-23 01:03:00,
2013-03-22 18:12:00,30.0,10.0,-100.00,NW,305,9.0,16.0,42,-99.99,,,-99.99,,2013-03-23 01:12:00,
2013-03-22 18:22:00,29.0,9.0,-100.00,NW,313,10.0,18.0,42,-99.99,,,-99.99,,2013-03-23 01:22:00,
2013-03-22 18:32:00,28.0,9.0,-100.00,WNW,302,9.0,17.0,44,-99.99,,,-99.99,,2013-03-23 01:32:00,
2013-03-22 18:42:00,27.0,11.0,-100.00,NW,326,13.0,22.0,51,-99.99,,,-99.99,,2013-03-23 01:42:00,
2013-03-22 18:52:00,26.0,11.0,-100.00,NNW,337,14.0,23.0,54,-99.99,,,-99.99,,2013-03-23 01:52:00,
2013-03-22 19:02:00,24.0,11.0,-100.00,NNW,329,14.0,23.0,56,-99.99,,,-99.99,,2013-03-23 02:02:00,
2013-03-22 19:12:00,24.0,10.0,-100.00,NW,323,10.0,20.0,54,-99.99,,,-99.99,,2013-03-23 02:12:00,
2013-03-22 19:22:00,24.0,10.0,-100.00,NW,326,12.0,20.0,56,-99.99,,,-99.99,,2013-03-23 02:22:00,
2013-03-22 19:32:00,23.0,10.0,-100.00,NNW,329,11.0,20.0,57,-99.99,,,-99.99,,2013-03-23 02:32:00,
2013-03-22 19:42:00,23.0,9.0,-100.00,NW,326,12.0,19.0,56,-99.99,,,-99.99,,2013-03-23 02:42:00,
2013-03-22 19:52:00,23.0,9.0,-100.00,NW,322,6.0,14.0,56,-99.99,,,-99.99,,2013-03-23 02:52:00,
2013-03-22 20:02:00,23.0,9.0,-100.00,NNW,340,7.0,13.0,55,-99.99,,,-99.99,,2013-03-23 03:02:00,
2013-03-22 20:12:00,22.0,7.0,-100.00,NNW,342,9.0,17.0,51,-99.99,,,-99.99,,2013-03-23 03:12:00,
2013-03-22 20:22:00,22.0,7.0,-100.00,NNW,333,8.0,14.0,51,-99.99,,,-99.99,,2013-03-23 03:22:00,
2013-03-22 20:33:00,22.0,7.0,-100.00,NNW,333,8.0,14.0,51,-99.99,,,-99.99,,2013-03-23 03:33:00,
2013-03-22 21:02:00,21.0,6.0,-100.00,NE,38,5.0,9.0,53,-99.99,,,-99.99,,2013-03-23 04:02:00,
2013-03-22 21:12:00,21.0,5.0,-100.00,NNE,32,6.0,10.0,50,-99.99,,,-99.99,,2013-03-23 04:12:00,
2013-03-22 21:23:00,21.0,5.0,-100.00,North,4,6.0,13.0,51,-99.99,,,-99.99,,2013-03-23 04:23:00,
2013-03-22 21:32:00,20.0,4.0,-100.00,North,357,8.0,13.0,48,-99.99,,,-99.99,,2013-03-23 04:32:00,
2013-03-22 21:43:00,20.0,4.0,-100.00,North,356,7.0,13.0,49,-99.99,,,-99.99,,2013-03-23 04:43:00,
2013-03-22 21:53:00,20.0,4.0,-100.00,North,359,11.0,19.0,49,-99.99,,,-99.99,,2013-03-23 04:53:00,
2013-03-22 22:02:00,20.0,4.0,-100.00,North,4,9.0,15.0,50,-99.99,,,-99.99,,2013-03-23 05:02:00,
2013-03-22 22:12:00,20.0,4.0,-100.00,North,6,8.0,13.0,50,-99.99,,,-99.99,,2013-03-23 05:12:00,
2013-03-22 22:22:00,19.0,5.0,-100.00,NNE,20,9.0,13.0,53,-99.99,,,-99.99,,2013-03-23 05:22:00,
2013-03-22 22:32:00,19.0,5.0,-100.00,NNE,17,7.0,13.0,53,-99.99,,,-99.99,,2013-03-23 05:32:00,
2013-03-22 22:42:00,19.0,4.0,-100.00,NNE,16,7.0,13.0,52,-99.99,,,-99.99,,2013-03-23 05:42:00,
2013-03-22 22:52:00,19.0,4.0,-100.00,North,7,8.0,13.0,51,-99.99,,,-99.99,,2013-03-23 05:52:00,
2013-03-22 23:02:00,19.0,5.0,-100.00,North,4,7.0,16.0,53,-99.99,,,-99.99,,2013-03-23 06:02:00,
2013-03-22 23:12:00,19.0,5.0,-100.00,North,8,9.0,14.0,54,-99.99,,,-99.99,,2013-03-23 06:12:00,
2013-03-22 23:22:00,19.0,5.0,-100.00,North,10,7.0,11.0,55,-99.99,,,-99.99,,2013-03-23 06:22:00,
2013-03-22 23:32:00,18.0,5.0,-100.00,North,11,7.0,11.0,56,-99.99,,,-99.99,,2013-03-23 06:32:00,
2013-03-22 23:42:00,18.0,5.0,-100.00,North,3,7.0,12.0,57,-99.99,,,-99.99,,2013-03-23 06:42:00,
2013-03-22 23:52:00,18.0,6.0,-100.00,North,354,7.0,13.0,58,-99.99,,,-99.99,,2013-03-23 06:52:00,